createdAt,value
2019-02-22T00:02:05.200Z,87.00
2019-02-22T00:04:34.746Z,87.00
2019-02-22T00:07:06.102Z,87.00
2019-02-22T00:09:35.642Z,86.90
2019-02-22T00:12:05.144Z,86.80
2019-02-22T00:14:34.546Z,87.00
2019-02-22T00:17:04.014Z,86.80
2019-02-22T00:19:33.462Z,86.80
2019-02-22T00:22:02.896Z,86.80
2019-02-22T00:24:32.373Z,86.80
2019-02-22T00:27:01.840Z,86.70
2019-02-22T00:29:31.474Z,86.60
2019-02-22T00:32:01.133Z,86.50
2019-02-22T00:34:30.577Z,86.40
2019-02-22T00:37:00.086Z,86.30
2019-02-22T00:39:29.553Z,86.40
2019-02-22T00:41:58.954Z,86.40
2019-02-22T00:44:28.340Z,86.50
2019-02-22T00:46:57.886Z,86.30
2019-02-22T00:49:27.331Z,86.40
2019-02-22T00:51:56.839Z,86.40
2019-02-22T00:54:26.361Z,86.40
2019-02-22T00:56:55.820Z,86.40
2019-02-22T00:59:25.328Z,86.30
2019-02-22T01:01:54.824Z,86.30
2019-02-22T01:04:24.378Z,86.30
2019-02-22T01:06:53.836Z,86.30
2019-02-22T01:09:23.337Z,86.40
2019-02-22T01:11:52.818Z,86.50
2019-02-22T01:14:22.974Z,86.60
2019-02-22T01:16:52.362Z,86.60
2019-02-22T01:19:21.906Z,86.50
2019-02-22T01:21:51.394Z,86.50
2019-02-22T01:24:20.887Z,86.50
2019-02-22T01:26:50.466Z,86.60
2019-02-22T01:29:19.888Z,86.60
2019-02-22T01:31:49.587Z,86.60
2019-02-22T01:34:19.020Z,86.70
2019-02-22T01:36:48.476Z,86.70
2019-02-22T01:39:18.106Z,86.60
2019-02-22T01:41:47.720Z,86.60
2019-02-22T01:44:20.622Z,86.50
2019-02-22T01:46:50.150Z,86.40
2019-02-22T01:49:19.646Z,86.40
2019-02-22T01:51:49.116Z,86.40
2019-02-22T01:54:18.568Z,86.30
2019-02-22T01:56:48.076Z,86.30
2019-02-22T01:59:17.660Z,86.30
2019-02-22T02:01:47.158Z,86.30
2019-02-22T02:04:16.710Z,86.40
2019-02-22T02:06:46.150Z,86.50
2019-02-22T02:09:15.686Z,86.30
2019-02-22T02:11:45.174Z,86.60
2019-02-22T02:14:14.787Z,86.70
2019-02-22T02:16:44.440Z,87.00
2019-02-22T02:19:14.006Z,87.20
2019-02-22T02:21:44.027Z,87.40
2019-02-22T02:24:15.114Z,87.40
2019-02-22T02:26:44.535Z,87.40
2019-02-22T02:29:14.120Z,87.50
2019-02-22T02:31:43.687Z,87.50
2019-02-22T02:34:13.141Z,87.50
2019-02-22T02:36:42.589Z,87.80
2019-02-22T02:39:12.042Z,88.00
2019-02-22T02:41:41.520Z,88.60
2019-02-22T02:44:10.950Z,88.20
2019-02-22T02:46:40.416Z,88.30
2019-02-22T02:49:09.923Z,88.50
2019-02-22T02:51:39.305Z,88.80
2019-02-22T02:54:08.887Z,88.70
2019-02-22T02:56:38.465Z,89.10
2019-02-22T02:59:07.989Z,89.20
2019-02-22T03:01:37.563Z,89.10
2019-02-22T03:04:07.070Z,89.10
2019-02-22T03:06:38.198Z,89.10
2019-02-22T03:09:09.324Z,89.10
2019-02-22T03:11:38.885Z,89.80
2019-02-22T03:14:08.267Z,89.40
2019-02-22T03:16:37.642Z,89.90
2019-02-22T03:19:07.151Z,89.60
2019-02-22T03:21:36.709Z,89.60
2019-02-22T03:24:06.216Z,89.70
2019-02-22T03:26:35.616Z,89.70
2019-02-22T03:29:05.100Z,89.60
2019-02-22T03:31:34.715Z,89.50
2019-02-22T03:34:04.191Z,89.70
2019-02-22T03:36:33.687Z,89.70
2019-02-22T03:39:04.863Z,89.80
2019-02-22T03:41:34.279Z,89.60
2019-02-22T03:44:03.726Z,89.90
2019-02-22T03:46:33.272Z,89.80
2019-02-22T03:49:02.741Z,90.00
2019-02-22T03:51:32.276Z,90.30
2019-02-22T03:54:01.879Z,90.30
2019-02-22T03:56:31.464Z,90.50
2019-02-22T03:59:01.134Z,90.50
2019-02-22T04:01:30.669Z,90.40
2019-02-22T04:04:00.206Z,90.50
2019-02-22T04:06:29.703Z,90.50
2019-02-22T04:08:59.364Z,90.50
2019-02-22T04:11:28.954Z,90.60
2019-02-22T04:13:58.492Z,90.50
2019-02-22T04:16:28.070Z,90.60
2019-02-22T04:18:59.247Z,90.70
2019-02-22T04:21:30.400Z,90.70
2019-02-22T04:23:59.901Z,90.80
2019-02-22T04:26:29.335Z,90.20
2019-02-22T04:28:58.893Z,90.30
2019-02-22T04:31:28.433Z,90.30
2019-02-22T04:33:57.964Z,90.30
2019-02-22T04:36:27.398Z,90.40
2019-02-22T04:38:56.871Z,90.90
2019-02-22T04:41:26.389Z,90.40
2019-02-22T04:43:55.970Z,91.00
2019-02-22T04:46:25.459Z,90.40
2019-02-22T04:48:54.953Z,90.50
2019-02-22T04:51:24.621Z,90.60
2019-02-22T04:53:54.033Z,90.50
2019-02-22T04:56:23.433Z,90.50
2019-02-22T04:58:52.915Z,90.50
2019-02-22T05:01:22.335Z,90.60
2019-02-22T05:03:51.816Z,91.00
2019-02-22T05:06:21.242Z,90.60
2019-02-22T05:08:50.781Z,90.60
2019-02-22T05:11:20.285Z,90.60
2019-02-22T05:13:49.739Z,90.60
2019-02-22T05:16:19.212Z,90.60
2019-02-22T05:18:48.793Z,91.10
2019-02-22T05:21:18.317Z,90.70
2019-02-22T05:23:47.994Z,90.70
2019-02-22T05:26:17.419Z,90.70
2019-02-22T05:28:46.853Z,90.60
2019-02-22T05:31:16.283Z,90.70
2019-02-22T05:33:45.744Z,90.70
2019-02-22T05:36:16.764Z,90.80
2019-02-22T05:38:46.261Z,90.70
2019-02-22T05:41:15.761Z,90.70
2019-02-22T05:43:45.365Z,90.70
2019-02-22T05:46:14.991Z,90.70
2019-02-22T05:48:44.485Z,90.70
2019-02-22T05:51:13.980Z,90.70
2019-02-22T05:53:43.541Z,90.80
2019-02-22T05:56:13.025Z,90.70
2019-02-22T05:58:42.541Z,90.80
2019-02-22T06:01:11.964Z,90.80
2019-02-22T06:03:41.569Z,90.80
2019-02-22T06:06:11.058Z,90.80
2019-02-22T06:08:40.552Z,90.80
2019-02-22T06:11:10.047Z,90.80
2019-02-22T06:13:39.549Z,90.80
2019-02-22T06:16:09.057Z,90.80
2019-02-22T06:18:38.594Z,90.80
2019-02-22T06:21:08.037Z,90.80
2019-02-22T06:23:37.514Z,90.90
2019-02-22T06:26:07.015Z,90.90
2019-02-22T06:28:36.523Z,90.90
2019-02-22T06:31:06.067Z,90.90
2019-02-22T06:33:35.507Z,90.90
2019-02-22T06:36:05.052Z,91.00
2019-02-22T06:38:34.457Z,90.90
2019-02-22T06:41:04.037Z,90.90
2019-02-22T06:43:33.588Z,91.00
2019-02-22T06:46:03.067Z,90.90
2019-02-22T06:48:32.483Z,90.90
2019-02-22T06:51:01.922Z,91.00
2019-02-22T06:53:31.491Z,91.30
2019-02-22T06:56:00.976Z,90.90
2019-02-22T06:58:30.452Z,91.00
2019-02-22T07:01:00.029Z,91.00
2019-02-22T07:03:29.601Z,91.00
2019-02-22T07:05:59.059Z,90.90
2019-02-22T07:08:28.539Z,91.10
2019-02-22T07:11:02.745Z,91.00
2019-02-22T07:13:32.508Z,91.00
2019-02-22T07:16:01.931Z,91.10
2019-02-22T07:18:31.409Z,91.10
2019-02-22T07:21:00.931Z,91.20
2019-02-22T07:23:30.554Z,91.20
2019-02-22T07:26:00.009Z,91.20
2019-02-22T07:28:29.437Z,91.20
2019-02-22T07:30:58.953Z,91.30
2019-02-22T07:33:28.441Z,91.30
2019-02-22T07:35:57.941Z,91.30
2019-02-22T07:38:28.359Z,91.30
2019-02-22T07:40:57.791Z,91.30
2019-02-22T07:43:27.205Z,91.40
2019-02-22T07:45:56.769Z,91.40
2019-02-22T07:48:26.345Z,91.40
2019-02-22T07:50:58.197Z,91.30
2019-02-22T07:53:27.106Z,91.40
2019-02-22T07:55:56.667Z,91.40
2019-02-22T07:58:26.053Z,91.40
2019-02-22T08:00:55.615Z,91.40
2019-02-22T08:03:25.047Z,91.40
2019-02-22T08:05:54.557Z,91.50
2019-02-22T08:08:24.142Z,91.50
2019-02-22T08:10:53.733Z,91.50
2019-02-22T08:13:23.223Z,91.50
2019-02-22T08:15:52.803Z,91.50
2019-02-22T08:18:22.299Z,91.60
2019-02-22T08:20:51.745Z,91.60
2019-02-22T08:23:21.265Z,91.80
2019-02-22T08:25:50.783Z,91.70
2019-02-22T08:28:20.291Z,91.60
2019-02-22T08:30:51.463Z,91.70
2019-02-22T08:33:21.095Z,91.70
2019-02-22T08:35:50.601Z,91.80
2019-02-22T08:38:20.128Z,91.70
2019-02-22T08:40:49.740Z,91.80
2019-02-22T08:43:30.608Z,91.90
2019-02-22T08:45:50.385Z,92.00
2019-02-22T08:48:20.997Z,92.00
2019-02-22T08:50:50.390Z,92.00
2019-02-22T08:53:20.645Z,92.10
2019-02-22T08:55:50.259Z,92.10
2019-02-22T08:58:19.779Z,92.20
2019-02-22T09:00:49.251Z,92.20
2019-02-22T09:03:18.767Z,92.00
2019-02-22T09:05:48.383Z,92.10
2019-02-22T09:08:18.007Z,92.10
2019-02-22T09:10:57.523Z,92.20
2019-02-22T09:13:18.581Z,92.20
2019-02-22T09:15:48.152Z,92.10
2019-02-22T09:18:17.629Z,92.20
2019-02-22T09:20:47.102Z,92.30
2019-02-22T09:23:17.711Z,92.30
2019-02-22T09:25:47.235Z,92.40
2019-02-22T09:28:16.791Z,92.50
2019-02-22T09:30:46.264Z,92.60
2019-02-22T09:33:15.951Z,92.70
2019-02-22T09:35:45.443Z,92.80
2019-02-22T09:38:14.859Z,92.70
2019-02-22T09:40:44.419Z,92.90
2019-02-22T09:43:13.917Z,93.00
2019-02-22T09:45:43.451Z,93.00
2019-02-22T09:48:12.947Z,93.00
2019-02-22T09:50:42.415Z,93.00
2019-02-22T09:53:11.951Z,93.10
2019-02-22T09:55:41.549Z,93.20
2019-02-22T09:58:11.042Z,93.20
2019-02-22T10:00:40.534Z,93.20
2019-02-22T10:03:10.029Z,93.20
2019-02-22T10:05:39.508Z,93.30
2019-02-22T10:08:08.971Z,93.20
2019-02-22T10:10:38.449Z,93.20
2019-02-22T10:13:07.971Z,93.30
2019-02-22T10:15:37.453Z,93.10
2019-02-22T10:18:07.041Z,93.00
2019-02-22T10:20:36.578Z,93.00
2019-02-22T10:23:06.063Z,93.00
2019-02-22T10:25:35.634Z,93.10
2019-02-22T10:28:05.280Z,93.00
2019-02-22T10:30:34.798Z,93.00
2019-02-22T10:33:04.345Z,92.90
2019-02-22T10:35:34.093Z,92.90
2019-02-22T10:38:03.788Z,93.00
2019-02-22T10:40:33.259Z,93.00
2019-02-22T10:43:02.781Z,93.00
2019-02-22T10:45:32.406Z,92.90
2019-02-22T10:48:01.820Z,92.80
2019-02-22T10:50:31.314Z,92.90
2019-02-22T10:53:02.348Z,93.00
2019-02-22T10:55:32.582Z,93.10
2019-02-22T10:58:03.705Z,93.10
2019-02-22T11:00:34.979Z,93.10
2019-02-22T11:03:04.477Z,93.30
2019-02-22T11:05:34.043Z,93.30
2019-02-22T11:08:03.530Z,93.40
2019-02-22T11:10:33.125Z,93.30
2019-02-22T11:13:02.726Z,93.00
2019-02-22T11:15:32.282Z,93.00
2019-02-22T11:18:01.831Z,93.10
2019-02-22T11:20:31.406Z,93.10
2019-02-22T11:23:00.921Z,93.20
2019-02-22T11:25:30.492Z,93.30
2019-02-22T11:28:00.004Z,93.40
2019-02-22T11:30:29.517Z,93.20
2019-02-22T11:32:59.162Z,93.40
2019-02-22T11:35:28.643Z,93.30
2019-02-22T11:37:58.212Z,93.20
2019-02-22T11:40:27.680Z,93.20
2019-02-22T11:42:57.256Z,93.30
2019-02-22T11:45:26.713Z,93.40
2019-02-22T11:47:56.314Z,93.40
2019-02-22T11:50:25.778Z,93.40
2019-02-22T11:52:55.356Z,93.40
2019-02-22T11:55:24.884Z,93.80
2019-02-22T11:57:54.598Z,93.30
2019-02-22T12:00:24.156Z,93.30
2019-02-22T12:02:54.705Z,93.30
2019-02-22T12:05:24.168Z,93.30
2019-02-22T12:07:54.639Z,93.20
2019-02-22T12:10:24.146Z,93.30
2019-02-22T12:12:55.453Z,93.40
2019-02-22T12:15:24.938Z,93.40
2019-02-22T12:17:54.412Z,93.40
2019-02-22T12:20:23.964Z,93.50
2019-02-22T12:22:53.412Z,93.50
2019-02-22T12:25:23.430Z,93.50
2019-02-22T12:27:53.006Z,93.20
2019-02-22T12:30:22.556Z,93.10
2019-02-22T12:32:51.937Z,93.10
2019-02-22T12:35:21.481Z,93.00
2019-02-22T12:37:50.979Z,93.10
2019-02-22T12:40:20.426Z,93.20
2019-02-22T12:42:49.942Z,93.20
2019-02-22T12:45:21.070Z,93.30
2019-02-22T12:47:50.686Z,93.30
2019-02-22T12:50:20.228Z,93.30
2019-02-22T12:52:49.714Z,93.40
2019-02-22T12:55:19.248Z,93.40
2019-02-22T12:57:49.141Z,93.50
2019-02-22T13:00:19.726Z,93.50
2019-02-22T13:03:01.217Z,93.50
2019-02-22T13:05:27.121Z,93.50
2019-02-22T13:07:56.620Z,93.30
2019-02-22T13:10:27.630Z,93.10
2019-02-22T13:12:57.226Z,93.20
2019-02-22T13:15:26.683Z,93.20
2019-02-22T13:17:56.188Z,93.20
2019-02-22T13:20:26.696Z,93.20
2019-02-22T13:22:56.404Z,93.10
2019-02-22T13:25:25.890Z,93.00
2019-02-22T13:27:55.313Z,92.90
2019-02-22T13:30:24.835Z,92.80
2019-02-22T13:32:54.395Z,92.70
2019-02-22T13:35:24.132Z,92.60
2019-02-22T13:37:53.620Z,92.70
2019-02-22T13:40:23.378Z,92.70
2019-02-22T13:42:52.910Z,92.70
2019-02-22T13:45:26.980Z,92.70
2019-02-22T13:47:54.583Z,92.70
2019-02-22T13:50:24.135Z,92.80
2019-02-22T13:52:53.626Z,92.80
2019-02-22T13:55:23.095Z,92.90
2019-02-22T13:57:52.728Z,92.90
2019-02-22T14:00:22.314Z,93.00
2019-02-22T14:02:52.042Z,92.90
2019-02-22T14:05:21.503Z,92.80
2019-02-22T14:07:56.526Z,93.10
2019-02-22T14:10:26.689Z,92.80
2019-02-22T14:12:56.258Z,92.80
2019-02-22T14:15:37.076Z,92.80
2019-02-22T14:17:57.914Z,92.70
2019-02-22T14:20:27.409Z,92.60
2019-02-22T14:22:56.920Z,92.70
2019-02-22T14:25:26.540Z,92.70
2019-02-22T14:27:56.215Z,92.60
2019-02-22T14:30:25.834Z,92.60
2019-02-22T14:32:55.294Z,92.60
2019-02-22T14:35:24.780Z,92.50
2019-02-22T14:37:54.426Z,92.60
2019-02-22T14:40:24.016Z,92.70
2019-02-22T14:42:53.522Z,92.60
2019-02-22T14:45:23.972Z,92.50
2019-02-22T14:47:53.444Z,92.50
2019-02-22T14:50:23.409Z,92.50
2019-02-22T14:52:53.898Z,92.60
2019-02-22T14:55:23.392Z,92.60
2019-02-22T14:57:52.835Z,92.50
2019-02-22T15:00:22.380Z,92.50
2019-02-22T15:02:51.871Z,92.30
2019-02-22T15:05:21.360Z,92.30
2019-02-22T15:07:51.629Z,92.30
2019-02-22T15:10:21.210Z,92.30
2019-02-22T15:12:50.628Z,92.40
2019-02-22T15:15:22.046Z,92.50
2019-02-22T15:17:56.172Z,92.50
2019-02-22T15:20:25.772Z,92.50
2019-02-22T15:22:55.138Z,92.40
2019-02-22T15:25:24.688Z,92.40
2019-02-22T15:27:54.221Z,92.40
2019-02-22T15:30:23.887Z,92.40
2019-02-22T15:32:53.461Z,92.40
2019-02-22T15:35:22.974Z,92.40
2019-02-22T15:37:52.483Z,92.40
2019-02-22T15:40:23.640Z,92.50
2019-02-22T15:43:10.115Z,92.50
2019-02-22T15:45:41.260Z,92.50
2019-02-22T15:48:14.460Z,92.50
2019-02-22T15:50:45.142Z,92.50
2019-02-22T15:53:32.471Z,92.60
2019-02-22T15:56:02.066Z,92.60
2019-02-22T15:58:31.562Z,92.60
2019-02-22T16:01:01.012Z,92.60
2019-02-22T16:03:32.210Z,92.60
2019-02-22T16:06:01.738Z,92.60
2019-02-22T16:08:31.302Z,92.50
2019-02-22T16:11:00.763Z,92.50
2019-02-22T16:13:30.256Z,92.50
2019-02-22T16:15:59.745Z,92.50
2019-02-22T16:18:29.222Z,92.50
2019-02-22T16:20:58.848Z,92.40
2019-02-22T16:23:28.389Z,92.30
2019-02-22T16:25:58.892Z,92.30
2019-02-22T16:28:28.428Z,92.30
2019-02-22T16:30:57.966Z,92.30
2019-02-22T16:33:27.451Z,92.30
2019-02-22T16:35:56.913Z,92.30
2019-02-22T16:38:26.355Z,92.20
2019-02-22T16:40:55.815Z,92.20
2019-02-22T16:43:25.334Z,92.20
2019-02-22T16:45:54.806Z,92.20
2019-02-22T16:48:24.293Z,92.20
2019-02-22T16:51:03.507Z,92.30
2019-02-22T16:53:33.117Z,92.20
2019-02-22T16:56:02.677Z,92.30
2019-02-22T16:58:32.245Z,92.20
2019-02-22T17:01:01.700Z,92.20
2019-02-22T17:03:31.152Z,92.30
2019-02-22T17:06:04.719Z,92.30
2019-02-22T17:08:34.262Z,92.40
2019-02-22T17:11:03.862Z,92.40
2019-02-22T17:13:33.366Z,92.60
2019-02-22T17:16:02.889Z,92.40
2019-02-22T17:18:32.348Z,92.40
2019-02-22T17:21:01.889Z,92.40
2019-02-22T17:23:31.429Z,92.50
2019-02-22T17:26:00.879Z,92.40
2019-02-22T17:28:30.483Z,92.40
2019-02-22T17:30:59.947Z,92.40
2019-02-22T17:33:29.431Z,92.40
2019-02-22T17:35:58.879Z,92.40
2019-02-22T17:38:34.633Z,92.30
2019-02-22T17:41:04.175Z,92.30
2019-02-22T17:43:33.761Z,92.30
2019-02-22T17:46:03.287Z,92.30
2019-02-22T17:48:32.793Z,92.30
2019-02-22T17:51:02.326Z,92.30
2019-02-22T17:53:31.884Z,92.20
2019-02-22T17:56:01.429Z,92.30
2019-02-22T17:58:33.513Z,92.20
2019-02-22T18:01:02.405Z,92.30
2019-02-22T18:03:31.946Z,92.20
2019-02-22T18:06:01.451Z,92.10
2019-02-22T18:08:30.993Z,92.10
2019-02-22T18:11:02.164Z,92.10
2019-02-22T18:13:31.666Z,92.00
2019-02-22T18:16:01.277Z,92.00
2019-02-22T18:18:30.775Z,91.90
2019-02-22T18:21:00.341Z,91.90
2019-02-22T18:23:29.826Z,91.90
2019-02-22T18:25:59.363Z,91.80
2019-02-22T18:28:28.953Z,91.80
2019-02-22T18:30:58.425Z,91.80
2019-02-22T18:33:27.952Z,91.80
2019-02-22T18:35:57.469Z,91.70
2019-02-22T18:38:27.061Z,91.80
2019-02-22T19:15:08.999Z,91.80
2019-02-22T19:37:15.185Z,91.80
2019-02-22T20:05:33.403Z,91.70
2019-02-22T20:14:58.024Z,91.70
2019-02-22T20:54:55.178Z,91.80
2019-02-22T20:57:24.732Z,91.80
2019-02-22T20:59:54.242Z,91.90
2019-02-22T21:02:23.647Z,91.90
2019-02-22T21:04:53.165Z,92.00
2019-02-22T21:07:22.675Z,92.10
2019-02-22T21:09:52.171Z,92.20
2019-02-22T21:12:21.671Z,92.00
2019-02-22T21:14:51.264Z,92.00
2019-02-22T21:17:20.819Z,92.20
2019-02-22T21:19:50.346Z,92.30
2019-02-22T21:22:19.858Z,92.00
2019-02-22T21:24:49.329Z,92.00
2019-02-22T21:27:18.812Z,92.00
2019-02-22T21:29:48.233Z,91.90
2019-02-22T21:32:17.762Z,91.90
2019-02-22T21:34:48.986Z,91.90
2019-02-22T21:37:18.439Z,92.60
2019-02-22T21:39:47.952Z,92.10
2019-02-22T21:42:20.029Z,92.10
2019-02-22T21:44:48.515Z,92.00
2019-02-22T21:47:18.058Z,92.00
2019-02-22T21:49:47.489Z,91.90
2019-02-22T21:52:16.919Z,91.90
2019-02-22T21:54:46.415Z,91.80
2019-02-22T21:57:15.830Z,91.90
2019-02-22T21:59:45.356Z,92.10
2019-02-22T22:02:14.759Z,91.90
2019-02-22T22:04:44.260Z,91.90
2019-02-22T22:07:13.708Z,91.90
2019-02-22T22:09:43.205Z,91.80
2019-02-22T22:12:12.671Z,91.90
2019-02-22T22:14:42.248Z,91.90
2019-02-22T22:17:13.077Z,91.80
2019-02-22T22:19:42.548Z,92.10
2019-02-22T22:22:12.037Z,91.80
2019-02-22T22:24:41.428Z,92.10
2019-02-22T22:27:10.903Z,91.80
2019-02-22T22:29:40.415Z,91.70
2019-02-22T22:32:09.942Z,91.80
2019-02-22T22:34:39.461Z,91.80
2019-02-22T22:37:08.892Z,91.80
2019-02-22T22:39:38.399Z,91.80
2019-02-22T22:42:07.899Z,91.80
2019-02-22T22:44:37.348Z,91.90
2019-02-22T22:47:06.846Z,91.80
2019-02-22T22:49:36.263Z,91.80
2019-02-22T22:52:05.722Z,91.70
2019-02-22T22:54:35.422Z,91.70
2019-02-22T22:57:04.910Z,91.70
2019-02-22T22:59:34.386Z,91.70
2019-02-22T23:02:04.310Z,91.70
2019-02-22T23:04:33.790Z,91.70
2019-02-22T23:07:03.407Z,91.70
2019-02-22T23:09:33.040Z,91.70
2019-02-22T23:12:02.892Z,91.70
2019-02-22T23:14:32.402Z,91.80
2019-02-22T23:17:01.881Z,92.20
2019-02-22T23:19:31.344Z,92.30
2019-02-22T23:22:00.900Z,92.20
2019-02-22T23:24:30.400Z,92.30
2019-02-22T23:26:59.922Z,92.40
2019-02-22T23:29:29.440Z,92.30
2019-02-22T23:31:58.924Z,92.60
2019-02-22T23:34:28.482Z,92.50
2019-02-22T23:36:57.948Z,92.40
2019-02-22T23:39:27.415Z,92.50
2019-02-22T23:41:56.878Z,92.50
2019-02-22T23:44:26.420Z,92.40
2019-02-22T23:46:55.904Z,92.40
2019-02-22T23:49:25.444Z,92.30
2019-02-22T23:51:54.898Z,92.30
2019-02-22T23:54:24.395Z,92.30
2019-02-22T23:56:53.938Z,92.20
2019-02-22T23:59:23.323Z,92.10
